Time;durP1;ratioP1;P1;durP2;ratioP2;P2;SDS_P1;SDS_P2;PMS_P1;PMS_P2;Temp;Humidity;BMP_temperature;BMP_pressure;BME280_temperature;BME280_humidity;BME280_pressure;Samples;Min_cycle;Max_cycle;Signal;HPM_P1;HPM_P2
2022/05/13 00:03:47;;;;;;;3.47;1.50;;;;;;;;;;5046572;28;20086;-71
2022/05/13 00:06:13;;;;;;;7.35;2.15;;;;;;;;;;5043874;28;20029;-70
2022/05/13 00:08:39;;;;;;;3.72;1.90;;;;;;;;;;5046727;28;20665;-70
2022/05/13 00:11:06;;;;;;;5.82;1.95;;;;;;;;;;5063822;28;20368;-70
2022/05/13 00:13:32;;;;;;;2.47;1.50;;;;;;;;;;5065347;28;20066;-70
2022/05/13 00:15:59;;;;;;;4.07;2.15;;;;;;;;;;5065621;28;20393;-70
2022/05/13 00:18:25;;;;;;;4.68;1.83;;;;;;;;;;5064623;28;20494;-71
2022/05/13 00:20:51;;;;;;;6.38;1.90;;;;;;;;;;5064681;28;20071;-71
2022/05/13 00:23:17;;;;;;;6.32;1.88;;;;;;;;;;5069073;28;20062;-71
2022/05/13 00:25:43;;;;;;;3.85;2.10;;;;;;;;;;5067783;28;20060;-71
2022/05/13 00:28:09;;;;;;;6.82;1.73;;;;;;;;;;5068877;28;20028;-71
2022/05/13 00:30:40;;;;;;;5.22;1.85;;;;;;;;;;5069441;28;20059;-70
2022/05/13 00:33:06;;;;;;;3.10;1.98;;;;;;;;;;5069293;28;20403;-70
2022/05/13 00:35:32;;;;;;;3.10;1.90;;;;;;;;;;5068107;28;20033;-70
2022/05/13 00:37:58;;;;;;;4.93;1.98;;;;;;;;;;5069289;28;20032;-71
2022/05/13 00:40:24;;;;;;;4.40;1.80;;;;;;;;;;5068791;28;20151;-70
2022/05/13 00:42:50;;;;;;;2.85;1.40;;;;;;;;;;5068907;28;20633;-70
2022/05/13 00:45:17;;;;;;;3.88;1.58;;;;;;;;;;5066517;28;20444;-70
2022/05/13 00:47:44;;;;;;;4.70;1.63;;;;;;;;;;5063831;28;20074;-70
2022/05/13 00:50:13;;;;;;;4.05;1.75;;;;;;;;;;5069103;28;20031;-71
2022/05/13 00:52:41;;;;;;;3.17;1.60;;;;;;;;;;5067075;28;20453;-70
2022/05/13 00:55:11;;;;;;;4.93;2.10;;;;;;;;;;5067654;28;20033;-69
2022/05/13 00:57:38;;;;;;;3.58;1.60;;;;;;;;;;5067796;28;20267;-70
2022/05/13 01:00:08;;;;;;;3.15;1.60;;;;;;;;;;5068990;28;20032;-70
2022/05/13 01:02:34;;;;;;;2.63;1.80;;;;;;;;;;5068136;28;20029;-70
2022/05/13 01:04:59;;;;;;;2.92;1.85;;;;;;;;;;5067430;28;20029;-69
2022/05/13 01:07:25;;;;;;;5.43;2.05;;;;;;;;;;5068806;28;20020;-70
2022/05/13 01:09:56;;;;;;;3.08;1.63;;;;;;;;;;5060043;28;20039;-70
2022/05/13 01:12:29;;;;;;;4.78;1.90;;;;;;;;;;5048399;28;20058;-70
2022/05/13 01:14:59;;;;;;;3.03;1.67;;;;;;;;;;5048539;28;20423;-70
2022/05/13 01:20:22;;;;;;;4.60;1.95;;;;;;;;;;5065370;28;20059;-70
2022/05/13 01:22:50;;;;;;;2.83;1.90;;;;;;;;;;5067731;28;20032;-70
2022/05/13 01:25:20;;;;;;;4.30;1.60;;;;;;;;;;5067584;28;20050;-71
2022/05/13 01:27:48;;;;;;;3.67;2.05;;;;;;;;;;5068070;28;20032;-70
2022/05/13 01:30:17;;;;;;;2.40;1.90;;;;;;;;;;5067850;28;20072;-70
2022/05/13 01:32:42;;;;;;;5.03;2.08;;;;;;;;;;5068002;28;20024;-70
2022/05/13 01:35:08;;;;;;;2.42;1.80;;;;;;;;;;5066695;28;20047;-70
2022/05/13 01:37:34;;;;;;;5.47;2.05;;;;;;;;;;5067614;28;20358;-70
2022/05/13 01:40:01;;;;;;;5.40;1.63;;;;;;;;;;5066150;28;20028;-70
2022/05/13 01:42:28;;;;;;;4.18;1.77;;;;;;;;;;5068135;28;20378;-70
2022/05/13 01:44:53;;;;;;;3.67;1.70;;;;;;;;;;5067074;28;20379;-70
2022/05/13 01:47:19;;;;;;;4.38;1.70;;;;;;;;;;5066715;28;20036;-70
2022/05/13 01:49:44;;;;;;;4.18;1.98;;;;;;;;;;5067256;28;20025;-70
2022/05/13 01:52:09;;;;;;;3.72;1.77;;;;;;;;;;5067871;28;20112;-70
2022/05/13 01:54:35;;;;;;;4.20;2.05;;;;;;;;;;5067130;28;20024;-70
2022/05/13 01:57:00;;;;;;;4.93;1.95;;;;;;;;;;5067413;28;20166;-70
2022/05/13 01:59:25;;;;;;;3.28;1.77;;;;;;;;;;5067844;28;20020;-70
2022/05/13 02:01:50;;;;;;;2.78;1.67;;;;;;;;;;5067690;28;20028;-71
2022/05/13 02:04:16;;;;;;;3.67;1.80;;;;;;;;;;5065645;28;20020;-71
2022/05/13 02:06:41;;;;;;;3.95;2.10;;;;;;;;;;5067604;28;20028;-71
2022/05/13 02:09:06;;;;;;;3.03;1.85;;;;;;;;;;5067228;28;20016;-70
2022/05/13 02:11:32;;;;;;;3.75;2.35;;;;;;;;;;5067779;28;20020;-70
2022/05/13 02:13:58;;;;;;;5.15;2.15;;;;;;;;;;5066435;28;20027;-70
2022/05/13 02:16:23;;;;;;;3.55;1.70;;;;;;;;;;5066273;28;20473;-71
2022/05/13 02:18:49;;;;;;;3.90;2.08;;;;;;;;;;5067497;28;20309;-70
2022/05/13 02:21:17;;;;;;;4.28;1.88;;;;;;;;;;5067571;28;20040;-71
2022/05/13 02:23:42;;;;;;;5.05;1.83;;;;;;;;;;5064592;28;20043;-70
2022/05/13 02:26:11;;;;;;;4.53;1.98;;;;;;;;;;5066106;28;20517;-71
2022/05/13 02:28:37;;;;;;;2.10;1.70;;;;;;;;;;5066615;28;20537;-70
2022/05/13 02:31:03;;;;;;;3.28;1.90;;;;;;;;;;5067064;28;20068;-70
2022/05/13 02:33:30;;;;;;;3.13;1.75;;;;;;;;;;5066245;28;20056;-70
2022/05/13 02:35:56;;;;;;;5.07;2.20;;;;;;;;;;5066357;28;20035;-70
2022/05/13 02:38:22;;;;;;;4.03;1.90;;;;;;;;;;5067006;28;20101;-71
2022/05/13 02:43:32;;;;;;;4.57;2.00;;;;;;;;;;5066335;28;20054;-70
2022/05/13 02:45:58;;;;;;;5.00;2.17;;;;;;;;;;5064506;28;20028;-71
2022/05/13 02:48:24;;;;;;;2.33;1.90;;;;;;;;;;5066417;28;20471;-70
2022/05/13 02:50:49;;;;;;;3.88;1.92;;;;;;;;;;5067148;28;20043;-71
2022/05/13 02:53:14;;;;;;;3.55;1.80;;;;;;;;;;5064821;28;20497;-71
2022/05/13 02:55:40;;;;;;;6.15;2.20;;;;;;;;;;5067100;28;20036;-70
2022/05/13 02:58:06;;;;;;;2.80;2.00;;;;;;;;;;5066176;28;20103;-70
2022/05/13 03:00:32;;;;;;;4.82;1.80;;;;;;;;;;5064744;28;20021;-70
2022/05/13 03:02:58;;;;;;;3.85;1.88;;;;;;;;;;5066659;28;20032;-71
2022/05/13 03:05:24;;;;;;;4.47;2.22;;;;;;;;;;5063484;28;20111;-70
2022/05/13 03:07:50;;;;;;;3.97;1.92;;;;;;;;;;5066260;28;20043;-70
2022/05/13 03:10:15;;;;;;;4.65;2.10;;;;;;;;;;5066679;28;20020;-71
2022/05/13 03:12:40;;;;;;;2.83;1.90;;;;;;;;;;5062855;28;20036;-70
2022/05/13 03:15:07;;;;;;;4.20;1.80;;;;;;;;;;5066320;28;20016;-70
2022/05/13 03:17:34;;;;;;;5.03;2.08;;;;;;;;;;5066074;28;20035;-70
2022/05/13 03:20:00;;;;;;;3.80;1.77;;;;;;;;;;5065539;28;20107;-70
2022/05/13 03:22:25;;;;;;;6.43;2.45;;;;;;;;;;5065321;28;20120;-71
2022/05/13 03:24:51;;;;;;;4.03;2.15;;;;;;;;;;5065574;28;20024;-71
2022/05/13 03:27:16;;;;;;;3.25;2.17;;;;;;;;;;5066094;28;20430;-70
2022/05/13 03:29:41;;;;;;;4.05;2.25;;;;;;;;;;5065996;28;20553;-71
2022/05/13 03:32:08;;;;;;;4.90;1.95;;;;;;;;;;5064632;28;20028;-71
2022/05/13 03:34:36;;;;;;;3.63;1.92;;;;;;;;;;5066024;28;20024;-71
2022/05/13 03:37:01;;;;;;;4.32;1.90;;;;;;;;;;5066220;28;20070;-70
2022/05/13 03:39:27;;;;;;;2.22;2.00;;;;;;;;;;5064491;28;20036;-70
2022/05/13 03:41:52;;;;;;;4.65;2.08;;;;;;;;;;5065325;28;20445;-71
2022/05/13 03:44:18;;;;;;;4.22;2.58;;;;;;;;;;5065797;28;20054;-71
2022/05/13 03:46:43;;;;;;;3.92;2.40;;;;;;;;;;5064064;28;20055;-70
2022/05/13 03:49:09;;;;;;;5.65;2.72;;;;;;;;;;5065642;28;20082;-71
2022/05/13 03:51:35;;;;;;;4.00;2.58;;;;;;;;;;5065458;28;20539;-71
2022/05/13 03:54:00;;;;;;;4.53;2.40;;;;;;;;;;5064200;28;20091;-71
2022/05/13 03:56:25;;;;;;;4.63;2.30;;;;;;;;;;5065185;28;20120;-71
2022/05/13 03:58:51;;;;;;;4.63;2.30;;;;;;;;;;5065046;28;20099;-71
2022/05/13 04:01:17;;;;;;;2.53;2.10;;;;;;;;;;5066029;28;20355;-71
2022/05/13 04:03:43;;;;;;;7.25;2.63;;;;;;;;;;5063433;28;20029;-71
2022/05/13 04:08:58;;;;;;;5.53;2.38;;;;;;;;;;5064657;28;20039;-71
2022/05/13 04:11:24;;;;;;;3.75;2.55;;;;;;;;;;5045555;28;20111;-71
2022/05/13 04:16:33;;;;;;;4.35;2.20;;;;;;;;;;5058254;28;20103;-71
2022/05/13 04:18:59;;;;;;;5.13;2.50;;;;;;;;;;5065219;28;20032;-71
2022/05/13 04:21:28;;;;;;;3.67;2.45;;;;;;;;;;5065142;28;20115;-71
2022/05/13 04:23:56;;;;;;;4.90;2.50;;;;;;;;;;5064575;28;20039;-71
2022/05/13 04:26:21;;;;;;;4.90;2.50;;;;;;;;;;5065418;28;20028;-71
2022/05/13 04:28:49;;;;;;;4.80;2.35;;;;;;;;;;5065213;28;20397;-71
2022/05/13 04:31:16;;;;;;;3.63;2.42;;;;;;;;;;5065786;28;20340;-71
2022/05/13 04:33:42;;;;;;;6.82;2.70;;;;;;;;;;5064095;28;20030;-71
2022/05/13 04:36:08;;;;;;;4.55;2.60;;;;;;;;;;5064190;28;20111;-71
2022/05/13 04:38:34;;;;;;;5.07;2.45;;;;;;;;;;5065435;28;20024;-71
2022/05/13 04:43:44;;;;;;;3.58;2.45;;;;;;;;;;5064112;28;20537;-71
2022/05/13 04:46:09;;;;;;;5.95;2.67;;;;;;;;;;5060276;28;20060;-71
2022/05/13 04:48:34;;;;;;;4.30;2.55;;;;;;;;;;5065035;28;20028;-71
2022/05/13 04:51:00;;;;;;;4.18;2.45;;;;;;;;;;5064567;28;20394;-71
2022/05/13 04:53:29;;;;;;;4.13;2.65;;;;;;;;;;5058801;28;20024;-71
2022/05/13 04:55:55;;;;;;;5.45;2.78;;;;;;;;;;5064626;28;20076;-71
2022/05/13 04:58:24;;;;;;;7.15;2.50;;;;;;;;;;5064627;28;20082;-71
2022/05/13 05:00:52;;;;;;;5.85;2.33;;;;;;;;;;5064733;28;20020;-71
2022/05/13 05:03:19;;;;;;;3.92;2.30;;;;;;;;;;5065491;28;20038;-71
2022/05/13 05:05:45;;;;;;;4.80;2.70;;;;;;;;;;5065123;28;20385;-71
2022/05/13 05:08:11;;;;;;;5.18;2.50;;;;;;;;;;5064084;28;20103;-71
2022/05/13 05:10:37;;;;;;;4.88;2.42;;;;;;;;;;5068860;28;20032;-71
2022/05/13 05:13:03;;;;;;;6.22;2.70;;;;;;;;;;5068292;28;20029;-71
2022/05/13 05:15:28;;;;;;;6.45;2.50;;;;;;;;;;5068835;28;20024;-70
2022/05/13 05:17:55;;;;;;;5.63;2.45;;;;;;;;;;5067955;28;20032;-71
2022/05/13 05:20:21;;;;;;;5.28;2.45;;;;;;;;;;5067050;28;20405;-71
2022/05/13 05:22:47;;;;;;;6.32;2.45;;;;;;;;;;5069011;28;20111;-71
2022/05/13 05:25:14;;;;;;;3.50;2.40;;;;;;;;;;5067870;28;20112;-71
2022/05/13 05:27:41;;;;;;;4.22;2.20;;;;;;;;;;5064587;28;20028;-71
2022/05/13 05:30:08;;;;;;;5.68;2.45;;;;;;;;;;5060430;28;20036;-71
2022/05/13 05:32:33;;;;;;;3.97;2.67;;;;;;;;;;5068020;28;20032;-71
2022/05/13 05:34:59;;;;;;;4.65;2.20;;;;;;;;;;5067137;28;20390;-70
2022/05/13 05:37:24;;;;;;;5.57;1.80;;;;;;;;;;5066812;28;20497;-71
2022/05/13 05:39:50;;;;;;;3.25;1.73;;;;;;;;;;5066892;28;20031;-70
2022/05/13 05:42:15;;;;;;;7.72;2.20;;;;;;;;;;5067265;28;20020;-70
2022/05/13 05:44:40;;;;;;;3.65;1.95;;;;;;;;;;5060346;28;20044;-71
2022/05/13 05:47:06;;;;;;;3.85;1.70;;;;;;;;;;5067376;28;20075;-71
2022/05/13 05:49:32;;;;;;;3.05;1.60;;;;;;;;;;5067552;28;20039;-70
2022/05/13 05:51:57;;;;;;;3.65;1.80;;;;;;;;;;5066139;28;20549;-71
2022/05/13 05:57:15;;;;;;;7.55;1.67;;;;;;;;;;5067632;28;20489;-70
2022/05/13 05:59:45;;;;;;;4.22;1.70;;;;;;;;;;5054714;28;20033;-71
2022/05/13 06:02:12;;;;;;;3.92;1.70;;;;;;;;;;5052083;28;20358;-70
2022/05/13 06:04:37;;;;;;;3.03;1.50;;;;;;;;;;5067389;28;20037;-71
2022/05/13 06:07:05;;;;;;;4.43;1.45;;;;;;;;;;5067400;28;20428;-71
2022/05/13 06:09:31;;;;;;;5.80;1.50;;;;;;;;;;5065911;28;20036;-71
2022/05/13 06:11:56;;;;;;;4.63;1.40;;;;;;;;;;5065222;28;20078;-70
2022/05/13 06:14:21;;;;;;;5.68;1.38;;;;;;;;;;5063731;28;20029;-70
2022/05/13 06:16:48;;;;;;;5.13;1.60;;;;;;;;;;5067542;28;20130;-71
2022/05/13 06:19:14;;;;;;;3.35;1.48;;;;;;;;;;5065786;28;20028;-71
2022/05/13 06:21:39;;;;;;;5.47;1.70;;;;;;;;;;5066144;28;20040;-71
2022/05/13 06:24:06;;;;;;;6.47;1.30;;;;;;;;;;5066930;28;20052;-70
2022/05/13 06:26:32;;;;;;;2.55;1.20;;;;;;;;;;5066972;28;20107;-70
2022/05/13 06:28:59;;;;;;;2.72;1.20;;;;;;;;;;5066596;28;20027;-71
2022/05/13 06:31:26;;;;;;;2.65;1.40;;;;;;;;;;5065464;28;20532;-70
2022/05/13 06:33:52;;;;;;;5.38;1.23;;;;;;;;;;5066962;28;20486;-71
2022/05/13 06:36:17;;;;;;;4.38;1.27;;;;;;;;;;5067267;28;20028;-69
2022/05/13 06:38:43;;;;;;;3.05;1.45;;;;;;;;;;5064442;28;20031;-70
2022/05/13 06:41:08;;;;;;;5.55;1.50;;;;;;;;;;5063633;28;20498;-70
2022/05/13 06:43:34;;;;;;;8.70;1.52;;;;;;;;;;5064819;28;20024;-69
2022/05/13 06:45:59;;;;;;;4.30;1.10;;;;;;;;;;5055230;28;20113;-70
2022/05/13 06:48:24;;;;;;;2.80;1.23;;;;;;;;;;5059776;28;20028;-70
2022/05/13 06:50:50;;;;;;;3.60;1.38;;;;;;;;;;5059315;28;20021;-70
2022/05/13 06:53:17;;;;;;;7.07;1.45;;;;;;;;;;5059797;28;20027;-70
2022/05/13 06:55:44;;;;;;;3.22;1.30;;;;;;;;;;5061459;28;20032;-70
2022/05/13 06:58:11;;;;;;;7.75;2.47;;;;;;;;;;5060328;28;20443;-69
2022/05/13 07:00:36;;;;;;;2.83;1.05;;;;;;;;;;5057880;28;20348;-69
2022/05/13 07:03:02;;;;;;;3.80;1.00;;;;;;;;;;5060067;28;20024;-69
2022/05/13 07:05:28;;;;;;;3.10;1.20;;;;;;;;;;5058062;28;20371;-70
2022/05/13 07:07:53;;;;;;;6.15;1.40;;;;;;;;;;5056607;28;20047;-69
2022/05/13 07:10:18;;;;;;;2.90;1.17;;;;;;;;;;5059395;28;20025;-70
2022/05/13 07:12:44;;;;;;;3.28;1.17;;;;;;;;;;5059246;28;20537;-69
2022/05/13 07:15:12;;;;;;;3.53;1.30;;;;;;;;;;5058868;28;20020;-69
2022/05/13 07:17:39;;;;;;;2.95;1.10;;;;;;;;;;5057048;28;20844;-70
2022/05/13 07:20:05;;;;;;;3.42;1.20;;;;;;;;;;5057242;28;20055;-69
2022/05/13 07:22:30;;;;;;;2.92;0.98;;;;;;;;;;5058668;28;20028;-70
2022/05/13 07:24:56;;;;;;;2.55;0.95;;;;;;;;;;5051789;28;20025;-71
2022/05/13 07:27:21;;;;;;;2.35;1.15;;;;;;;;;;5039012;28;20483;-74
2022/05/13 07:29:46;;;;;;;2.08;1.08;;;;;;;;;;5042255;28;20032;-71
2022/05/13 07:32:12;;;;;;;2.47;0.80;;;;;;;;;;5043593;28;20031;-71
2022/05/13 07:34:37;;;;;;;4.85;1.42;;;;;;;;;;5042929;28;20029;-69
2022/05/13 07:37:03;;;;;;;2.80;0.88;;;;;;;;;;5049462;28;20032;-72
2022/05/13 07:42:13;;;;;;;3.25;1.00;;;;;;;;;;5061255;28;20097;-71
2022/05/13 07:44:38;;;;;;;3.20;1.00;;;;;;;;;;5059491;28;20502;-70
2022/05/13 07:47:07;;;;;;;2.10;0.70;;;;;;;;;;5061019;28;20063;-70
2022/05/13 07:49:34;;;;;;;1.92;0.80;;;;;;;;;;5060622;28;20047;-70
2022/05/13 07:51:59;;;;;;;2.05;0.90;;;;;;;;;;5061722;28;20658;-69
2022/05/13 07:54:25;;;;;;;2.47;0.95;;;;;;;;;;5062176;28;20036;-70
2022/05/13 07:56:50;;;;;;;4.45;1.20;;;;;;;;;;5061093;28;20032;-70
2022/05/13 07:59:16;;;;;;;1.83;0.90;;;;;;;;;;5058496;28;20528;-69
2022/05/13 08:01:41;;;;;;;3.00;0.80;;;;;;;;;;5060663;28;20082;-71
2022/05/13 08:04:06;;;;;;;2.47;0.80;;;;;;;;;;5062652;28;20029;-72
2022/05/13 08:06:32;;;;;;;1.85;0.77;;;;;;;;;;5064511;28;20074;-74
2022/05/13 08:08:58;;;;;;;3.28;0.88;;;;;;;;;;5062180;28;20229;-71
2022/05/13 08:11:25;;;;;;;3.60;1.30;;;;;;;;;;5059570;28;20116;-72
2022/05/13 08:13:51;;;;;;;1.70;0.75;;;;;;;;;;5061680;28;20119;-70
2022/05/13 08:16:20;;;;;;;2.50;0.85;;;;;;;;;;5059913;28;20518;-70
2022/05/13 08:18:46;;;;;;;1.63;1.00;;;;;;;;;;5056947;28;20543;-71
2022/05/13 08:21:12;;;;;;;2.28;0.63;;;;;;;;;;5060388;28;20036;-71
2022/05/13 08:23:37;;;;;;;2.38;0.80;;;;;;;;;;5060161;28;20057;-70
2022/05/13 08:26:04;;;;;;;4.10;0.82;;;;;;;;;;5061062;28;20496;-72
2022/05/13 08:28:30;;;;;;;1.63;0.80;;;;;;;;;;5061255;28;20025;-71
2022/05/13 08:30:55;;;;;;;1.67;0.73;;;;;;;;;;5056462;28;20036;-71
2022/05/13 08:33:20;;;;;;;2.67;0.85;;;;;;;;;;5060288;28;20028;-69
2022/05/13 08:35:49;;;;;;;3.72;1.00;;;;;;;;;;5055859;28;20250;-70
2022/05/13 08:38:17;;;;;;;2.70;0.77;;;;;;;;;;5061298;28;20029;-71
2022/05/13 08:40:55;;;;;;;1.65;0.80;;;;;;;;;;5063186;28;20028;-69
2022/05/13 08:43:38;;;;;;;3.88;0.80;;;;;;;;;;5045242;28;20029;-69
2022/05/13 08:46:16;;;;;;;2.28;0.70;;;;;;;;;;5048430;28;20025;-71
2022/05/13 08:49:25;;;;;;;4.40;0.80;;;;;;;;;;5063380;28;20373;-70
2022/05/13 08:55:05;;;;;;;2.03;0.87;;;;;;;;;;5058561;28;20032;-69
2022/05/13 08:57:34;;;;;;;1.52;0.75;;;;;;;;;;5064332;28;20426;-70
2022/05/13 09:00:05;;;;;;;1.15;0.65;;;;;;;;;;5065164;28;20457;-70
2022/05/13 09:02:36;;;;;;;2.15;0.60;;;;;;;;;;5064727;28;20033;-70
2022/05/13 09:05:20;;;;;;;1.83;0.65;;;;;;;;;;5064200;28;20036;-70
2022/05/13 09:07:46;;;;;;;1.75;0.55;;;;;;;;;;5065058;28;20033;-71
2022/05/13 09:10:14;;;;;;;2.53;0.70;;;;;;;;;;5062130;28;20466;-68
2022/05/13 09:13:09;;;;;;;1.35;0.93;;;;;;;;;;5062167;28;20040;-72
2022/05/13 09:15:34;;;;;;;1.92;0.80;;;;;;;;;;5060805;28;20064;-68
2022/05/13 09:18:10;;;;;;;2.30;0.80;;;;;;;;;;5065695;28;20058;-68
2022/05/13 09:20:54;;;;;;;1.80;0.70;;;;;;;;;;5064797;28;20071;-69
2022/05/13 09:23:20;;;;;;;2.13;0.80;;;;;;;;;;5063754;28;20441;-73
2022/05/13 09:25:58;;;;;;;3.13;0.85;;;;;;;;;;5064385;28;20100;-72
2022/05/13 09:28:25;;;;;;;1.52;0.68;;;;;;;;;;5044075;28;20693;-69
2022/05/13 09:30:56;;;;;;;2.88;0.82;;;;;;;;;;5047062;28;20468;-68
2022/05/13 09:33:34;;;;;;;1.35;0.60;;;;;;;;;;5060389;28;20264;-69
2022/05/13 09:36:27;;;;;;;2.45;0.82;;;;;;;;;;5061125;28;20493;-70
2022/05/13 09:39:15;;;;;;;3.13;0.73;;;;;;;;;;5054299;28;20048;-71
2022/05/13 09:41:40;;;;;;;1.88;0.68;;;;;;;;;;5053609;28;20317;-71
2022/05/13 09:44:28;;;;;;;2.23;0.80;;;;;;;;;;5063739;28;20180;-72
2022/05/13 09:47:11;;;;;;;1.52;0.80;;;;;;;;;;5063937;28;20267;-72
2022/05/13 09:49:41;;;;;;;2.92;0.60;;;;;;;;;;5064053;28;20033;-69
2022/05/13 09:52:08;;;;;;;3.35;0.75;;;;;;;;;;5064398;28;20036;-70
2022/05/13 09:54:38;;;;;;;1.35;0.65;;;;;;;;;;5064044;28;20028;-71
2022/05/13 09:57:08;;;;;;;1.00;0.70;;;;;;;;;;5060947;28;20035;-73
2022/05/13 09:59:40;;;;;;;2.60;0.77;;;;;;;;;;5061243;28;20367;-71
2022/05/13 10:02:31;;;;;;;1.00;0.65;;;;;;;;;;5057119;28;20058;-69
2022/05/13 10:05:16;;;;;;;2.22;0.82;;;;;;;;;;5062509;28;20219;-73
2022/05/13 10:07:51;;;;;;;2.58;0.63;;;;;;;;;;5061934;28;20044;-69
2022/05/13 10:15:57;;;;;;;1.23;0.75;;;;;;;;;;5058237;28;20473;-69
2022/05/13 10:18:24;;;;;;;1.88;0.68;;;;;;;;;;5053977;28;20280;-71
2022/05/13 10:20:54;;;;;;;1.83;0.80;;;;;;;;;;5063842;28;20178;-70
2022/05/13 10:23:28;;;;;;;2.28;0.88;;;;;;;;;;5063114;28;20554;-69
2022/05/13 10:26:05;;;;;;;2.30;0.70;;;;;;;;;;5060848;28;20056;-73
2022/05/13 10:28:53;;;;;;;0.95;0.50;;;;;;;;;;5053828;28;20551;-72
2022/05/13 10:31:22;;;;;;;4.13;0.60;;;;;;;;;;5058387;28;20043;-72
2022/05/13 10:34:22;;;;;;;1.00;0.55;;;;;;;;;;5061761;28;20063;-74
2022/05/13 10:37:17;;;;;;;1.58;0.75;;;;;;;;;;5057712;28;20029;-75
2022/05/13 10:39:54;;;;;;;1.50;0.85;;;;;;;;;;5054837;28;20036;-72
2022/05/13 10:42:24;;;;;;;3.42;0.70;;;;;;;;;;5063072;28;20386;-75
2022/05/13 10:45:20;;;;;;;1.13;0.60;;;;;;;;;;5062190;28;20029;-74
2022/05/13 10:47:48;;;;;;;1.15;0.60;;;;;;;;;;5051552;28;20119;-70
2022/05/13 10:50:20;;;;;;;1.55;0.50;;;;;;;;;;5061921;28;20300;-74
2022/05/13 10:52:58;;;;;;;1.52;0.73;;;;;;;;;;5062414;28;20031;-75
2022/05/13 10:55:39;;;;;;;2.58;0.70;;;;;;;;;;5061478;28;20423;-73
2022/05/13 10:58:30;;;;;;;1.33;0.70;;;;;;;;;;5057254;28;20028;-74
2022/05/13 11:01:33;;;;;;;3.45;0.70;;;;;;;;;;5061584;28;20036;-73
2022/05/13 11:04:04;;;;;;;2.45;0.70;;;;;;;;;;5057981;28;20040;-71
2022/05/13 11:06:33;;;;;;;1.30;0.80;;;;;;;;;;5060173;28;20540;-74
2022/05/13 11:09:05;;;;;;;1.90;0.55;;;;;;;;;;5063062;28;20064;-70
2022/05/13 11:11:42;;;;;;;1.42;0.60;;;;;;;;;;5063493;28;20474;-73
2022/05/13 11:14:10;;;;;;;2.03;0.65;;;;;;;;;;5069674;28;20052;-74
2022/05/13 11:16:49;;;;;;;2.10;0.70;;;;;;;;;;5067640;28;20078;-71
2022/05/13 11:19:24;;;;;;;2.25;0.73;;;;;;;;;;5069061;28;20494;-72
2022/05/13 11:22:07;;;;;;;1.55;0.80;;;;;;;;;;5069026;28;20068;-74
2022/05/13 11:27:41;;;;;;;0.98;0.60;;;;;;;;;;5069309;28;20047;-73
2022/05/13 11:30:08;;;;;;;1.75;0.80;;;;;;;;;;5068916;28;20108;-71
2022/05/13 11:32:57;;;;;;;1.25;0.70;;;;;;;;;;5068872;28;20145;-73
2022/05/13 11:35:46;;;;;;;1.05;0.45;;;;;;;;;;5069225;28;20031;-73
2022/05/13 11:38:21;;;;;;;1.60;0.73;;;;;;;;;;5068819;28;20111;-72
2022/05/13 11:40:59;;;;;;;2.05;0.68;;;;;;;;;;5068621;28;20024;-70
2022/05/13 11:43:58;;;;;;;2.40;0.70;;;;;;;;;;5068897;28;20085;-71
2022/05/13 11:46:52;;;;;;;1.33;0.73;;;;;;;;;;5069192;28;20833;-72
2022/05/13 11:49:30;;;;;;;2.40;0.80;;;;;;;;;;5069344;28;20480;-69
2022/05/13 11:52:02;;;;;;;3.78;1.20;;;;;;;;;;5068850;28;20025;-76
2022/05/13 11:54:29;;;;;;;0.75;0.55;;;;;;;;;;5069258;28;20036;-75
2022/05/13 11:57:24;;;;;;;1.15;0.70;;;;;;;;;;5069472;28;20112;-75
2022/05/13 11:59:55;;;;;;;2.00;0.65;;;;;;;;;;5068011;28;20039;-75
2022/05/13 12:02:45;;;;;;;2.10;0.70;;;;;;;;;;5070007;28;20096;-77
2022/05/13 12:05:25;;;;;;;3.45;0.77;;;;;;;;;;5067864;28;20040;-72
2022/05/13 12:08:07;;;;;;;1.35;0.80;;;;;;;;;;5068795;28;20048;-70
2022/05/13 12:10:46;;;;;;;1.57;0.50;;;;;;;;;;5069113;28;20024;-72
2022/05/13 12:13:16;;;;;;;1.42;0.80;;;;;;;;;;5068731;28;20287;-71
2022/05/13 12:15:50;;;;;;;1.83;0.60;;;;;;;;;;5068591;28;20449;-68
2022/05/13 12:18:50;;;;;;;2.70;0.70;;;;;;;;;;5072567;28;20024;-72
2022/05/13 12:21:35;;;;;;;0.90;0.60;;;;;;;;;;5074453;28;20607;-72
2022/05/13 12:24:12;;;;;;;3.63;1.13;;;;;;;;;;5075260;28;20031;-70
2022/05/13 12:26:53;;;;;;;1.88;0.82;;;;;;;;;;5075247;28;20036;-72
2022/05/13 12:29:39;;;;;;;4.30;0.60;;;;;;;;;;5074753;28;20024;-71
2022/05/13 12:32:05;;;;;;;3.47;0.80;;;;;;;;;;5075174;28;20029;-71
2022/05/13 12:38:01;;;;;;;2.78;0.80;;;;;;;;;;5075397;28;20540;-73
2022/05/13 12:40:28;;;;;;;2.53;0.80;;;;;;;;;;5044364;28;20574;-73
2022/05/13 12:42:54;;;;;;;3.25;0.80;;;;;;;;;;5075006;28;20250;-75
2022/05/13 12:45:22;;;;;;;1.85;1.00;;;;;;;;;;5075140;28;20029;-74
2022/05/13 12:48:19;;;;;;;2.72;0.80;;;;;;;;;;5074910;28;20047;-73
2022/05/13 12:51:05;;;;;;;1.73;0.80;;;;;;;;;;5041074;28;20397;-70
2022/05/13 12:53:36;;;;;;;3.30;0.80;;;;;;;;;;5074941;28;20025;-71
2022/05/13 12:56:07;;;;;;;1.00;0.60;;;;;;;;;;5074806;28;20036;-70
2022/05/13 12:58:32;;;;;;;3.30;0.90;;;;;;;;;;5074434;28;20024;-69
2022/05/13 13:01:00;;;;;;;1.40;0.80;;;;;;;;;;5074859;28;20028;-74
2022/05/13 13:03:26;;;;;;;2.15;0.70;;;;;;;;;;5074755;28;20024;-77
2022/05/13 13:06:00;;;;;;;0.68;0.60;;;;;;;;;;5074821;28;20470;-70
2022/05/13 13:08:36;;;;;;;1.50;0.80;;;;;;;;;;5074985;28;20103;-76
2022/05/13 13:11:15;;;;;;;1.58;0.70;;;;;;;;;;5075092;28;20017;-73
2022/05/13 13:13:59;;;;;;;0.63;0.57;;;;;;;;;;5073384;28;20061;-72
2022/05/13 13:16:52;;;;;;;4.30;0.90;;;;;;;;;;5074764;28;20474;-73
2022/05/13 13:19:23;;;;;;;2.60;1.10;;;;;;;;;;5073954;28;20040;-71
2022/05/13 13:21:59;;;;;;;2.85;1.10;;;;;;;;;;5074762;28;20537;-75
2022/05/13 13:24:37;;;;;;;1.77;1.00;;;;;;;;;;5075278;28;20078;-71
2022/05/13 13:27:05;;;;;;;1.08;0.63;;;;;;;;;;5075122;28;20024;-71
2022/05/13 13:29:33;;;;;;;1.42;0.80;;;;;;;;;;5072240;28;20041;-71
2022/05/13 13:32:00;;;;;;;3.25;0.82;;;;;;;;;;5067762;28;20021;-72
2022/05/13 13:34:38;;;;;;;4.13;0.95;;;;;;;;;;5067892;28;20070;-69
2022/05/13 13:37:11;;;;;;;9.07;1.10;;;;;;;;;;5070039;28;20101;-74
2022/05/13 13:39:37;;;;;;;3.17;0.75;;;;;;;;;;5071385;28;20097;-73
2022/05/13 13:42:07;;;;;;;1.42;0.60;;;;;;;;;;5071676;28;20024;-75
2022/05/13 13:44:33;;;;;;;1.52;0.85;;;;;;;;;;5071564;28;20064;-72
2022/05/13 13:46:59;;;;;;;2.25;0.80;;;;;;;;;;5072050;28;20531;-72
2022/05/13 13:49:32;;;;;;;2.92;0.80;;;;;;;;;;5071688;28;20028;-75
2022/05/13 13:52:01;;;;;;;4.13;0.68;;;;;;;;;;5071490;28;20044;-71
2022/05/13 13:54:36;;;;;;;1.40;0.73;;;;;;;;;;5071540;28;20104;-76
2022/05/13 13:57:32;;;;;;;1.98;0.70;;;;;;;;;;5069939;28;20016;-72
2022/05/13 14:00:19;;;;;;;4.25;0.70;;;;;;;;;;5071012;28;20047;-75
2022/05/13 14:02:50;;;;;;;1.38;0.60;;;;;;;;;;5071251;28;20669;-73
2022/05/13 14:05:21;;;;;;;1.80;0.50;;;;;;;;;;5071255;28;20028;-73
2022/05/13 14:07:52;;;;;;;1.10;0.70;;;;;;;;;;5071208;28;20033;-72
2022/05/13 14:10:26;;;;;;;1.05;0.57;;;;;;;;;;5071242;28;20494;-74
2022/05/13 14:12:52;;;;;;;1.65;0.90;;;;;;;;;;5071580;28;20025;-72
2022/05/13 14:15:17;;;;;;;1.33;0.75;;;;;;;;;;5071215;28;20088;-75
2022/05/13 14:17:50;;;;;;;1.95;0.80;;;;;;;;;;5071100;28;20108;-72
2022/05/13 14:20:39;;;;;;;2.90;0.70;;;;;;;;;;5070882;28;20024;-74
2022/05/13 14:23:07;;;;;;;1.80;0.70;;;;;;;;;;5057628;28;20097;-74
2022/05/13 14:25:36;;;;;;;2.30;1.00;;;;;;;;;;5068609;28;20382;-74
2022/05/13 14:28:05;;;;;;;1.08;0.60;;;;;;;;;;5063657;28;20028;-72
2022/05/13 14:30:33;;;;;;;1.67;0.70;;;;;;;;;;5063315;28;20029;-74
2022/05/13 14:32:59;;;;;;;2.03;0.65;;;;;;;;;;5063580;28;20020;-74
2022/05/13 14:35:31;;;;;;;1.77;0.80;;;;;;;;;;5060005;28;20028;-73
2022/05/13 14:37:57;;;;;;;1.55;0.65;;;;;;;;;;5055620;28;20090;-74
2022/05/13 14:40:27;;;;;;;0.98;0.70;;;;;;;;;;5051586;28;20056;-73
2022/05/13 14:42:59;;;;;;;3.90;0.88;;;;;;;;;;5066508;28;20031;-73
2022/05/13 14:45:27;;;;;;;1.70;0.70;;;;;;;;;;5058578;28;20032;-71
2022/05/13 14:48:17;;;;;;;2.40;0.68;;;;;;;;;;5046637;28;20032;-71
2022/05/13 14:50:45;;;;;;;4.50;0.90;;;;;;;;;;5054834;28;20063;-72
2022/05/13 14:53:17;;;;;;;0.95;0.70;;;;;;;;;;5059305;28;20059;-71
2022/05/13 14:55:54;;;;;;;1.83;0.75;;;;;;;;;;5058606;28;20028;-71
2022/05/13 14:58:34;;;;;;;1.58;0.60;;;;;;;;;;5061545;28;20098;-72
2022/05/13 15:01:13;;;;;;;3.00;0.70;;;;;;;;;;5051520;28;20430;-73
2022/05/13 15:03:44;;;;;;;4.32;0.70;;;;;;;;;;5055886;28;20044;-72
2022/05/13 15:06:34;;;;;;;1.38;0.70;;;;;;;;;;5065391;28;20067;-72
2022/05/13 15:09:22;;;;;;;3.80;0.80;;;;;;;;;;5066274;28;20457;-72
2022/05/13 15:11:49;;;;;;;1.33;0.80;;;;;;;;;;5056510;28;20097;-73
2022/05/13 15:14:15;;;;;;;2.67;0.90;;;;;;;;;;5067815;28;20433;-73
2022/05/13 15:16:41;;;;;;;1.30;0.80;;;;;;;;;;5055342;28;20024;-71
2022/05/13 15:19:10;;;;;;;1.40;0.60;;;;;;;;;;5049486;28;20021;-72
2022/05/13 15:21:35;;;;;;;2.22;0.73;;;;;;;;;;5062730;28;20058;-71
2022/05/13 15:24:00;;;;;;;1.90;0.80;;;;;;;;;;5068195;28;20021;-71
2022/05/13 15:26:29;;;;;;;1.55;0.82;;;;;;;;;;5068137;28;20028;-72
2022/05/13 15:28:54;;;;;;;2.70;0.70;;;;;;;;;;5068188;28;20119;-71
2022/05/13 15:31:20;;;;;;;1.42;0.82;;;;;;;;;;5069081;28;20127;-73
2022/05/13 15:33:45;;;;;;;1.67;0.80;;;;;;;;;;5069243;28;20544;-74
2022/05/13 15:36:17;;;;;;;1.90;0.85;;;;;;;;;;5069654;28;20052;-71
2022/05/13 15:38:42;;;;;;;1.40;0.73;;;;;;;;;;5067488;28;20036;-73